createdAt,value
2022-12-12T00:01:39.316Z,-4.03
2022-12-12T00:04:07.728Z,-4.04
2022-12-12T00:06:36.337Z,-4.06
2022-12-12T00:09:05.055Z,-4.07
2022-12-12T00:11:33.396Z,-4.10
2022-12-12T00:14:01.592Z,-4.11
2022-12-12T00:16:30.033Z,-4.12
2022-12-12T00:18:58.343Z,-4.11
2022-12-12T00:21:29.587Z,-4.07
2022-12-12T00:23:58.085Z,-4.05
2022-12-12T00:26:30.104Z,-4.05
2022-12-12T00:29:00.010Z,-4.02
2022-12-12T00:31:29.361Z,-4.02
2022-12-12T00:33:57.721Z,-4.02
2022-12-12T00:36:28.452Z,-4.01
2022-12-12T00:38:57.747Z,-4.01
2022-12-12T00:41:26.307Z,-4.01
2022-12-12T00:43:54.515Z,-4.01
2022-12-12T00:46:24.617Z,-4.00
2022-12-12T00:48:57.915Z,-4.00
2022-12-12T00:51:28.919Z,-3.99
2022-12-12T00:53:58.430Z,-4.00
2022-12-12T00:56:29.161Z,-3.99
2022-12-12T00:58:57.373Z,-3.96
2022-12-12T01:01:28.887Z,-3.92
2022-12-12T01:03:57.508Z,-3.88
2022-12-12T01:06:26.588Z,-3.87
2022-12-12T01:08:55.083Z,-3.85
2022-12-12T01:11:23.511Z,-3.81
2022-12-12T01:13:53.074Z,-3.79
2022-12-12T01:16:22.633Z,-3.81
2022-12-12T01:18:51.243Z,-3.80
2022-12-12T01:21:20.603Z,-3.79
2022-12-12T01:23:48.943Z,-3.78
2022-12-12T01:26:20.272Z,-3.77
2022-12-12T01:28:49.351Z,-3.75
2022-12-12T01:31:17.769Z,-3.75
2022-12-12T01:33:46.388Z,-3.78
2022-12-12T01:36:16.906Z,-3.76
2022-12-12T01:38:50.673Z,-3.74
2022-12-12T01:41:20.710Z,-3.69
2022-12-12T01:43:49.187Z,-3.67
2022-12-12T01:46:35.452Z,-3.66
2022-12-12T01:49:27.627Z,-3.65
2022-12-12T01:52:00.849Z,-3.66
2022-12-12T01:54:36.348Z,-3.66
2022-12-12T01:57:10.996Z,-3.64
2022-12-12T01:59:40.352Z,-3.61
2022-12-12T02:06:04.318Z,-3.53
2022-12-12T02:08:33.761Z,-3.53
2022-12-12T02:11:02.139Z,-3.52
2022-12-12T02:13:33.243Z,-3.51
2022-12-12T02:16:28.695Z,-3.51
2022-12-12T02:19:02.834Z,-3.51
2022-12-12T02:21:38.843Z,-3.53
2022-12-12T02:24:22.951Z,-3.54
2022-12-12T02:27:09.327Z,-3.54
2022-12-12T02:29:58.617Z,-3.52
2022-12-12T02:33:03.809Z,-3.50
2022-12-12T02:35:31.946Z,-3.48
2022-12-12T02:38:17.543Z,-3.45
2022-12-12T02:41:03.892Z,-3.45
2022-12-12T02:43:47.785Z,-3.44
2022-12-12T02:46:29.273Z,-3.42
2022-12-12T02:49:03.067Z,-3.42
2022-12-12T02:51:33.556Z,-3.46
2022-12-12T02:54:04.939Z,-3.47
2022-12-12T02:56:50.566Z,-3.46
2022-12-12T02:59:30.447Z,-3.44
2022-12-12T03:02:35.530Z,-3.43
2022-12-12T03:05:37.665Z,-3.41
2022-12-12T03:08:23.929Z,-3.41
2022-12-12T03:11:04.798Z,-3.38
2022-12-12T03:14:07.347Z,-3.35
2022-12-12T03:16:58.517Z,-3.35
2022-12-12T03:19:30.810Z,-3.34
2022-12-12T03:22:06.379Z,-3.35
2022-12-12T03:24:41.862Z,-3.35
2022-12-12T03:27:12.995Z,-3.36
2022-12-12T03:29:43.986Z,-3.37
2022-12-12T03:32:17.575Z,-3.37
2022-12-12T03:35:00.566Z,-3.36
2022-12-12T03:37:37.877Z,-3.31
2022-12-12T03:40:11.769Z,-3.26
2022-12-12T03:42:48.032Z,-3.21
2022-12-12T03:45:51.737Z,-3.19
2022-12-12T03:48:30.820Z,-3.19
2022-12-12T03:51:04.709Z,-3.19
2022-12-12T03:53:42.449Z,-3.18
2022-12-12T03:56:25.389Z,-3.20
2022-12-12T03:59:12.209Z,-3.20
2022-12-12T04:01:49.453Z,-3.18
2022-12-12T04:04:21.837Z,-3.18
2022-12-12T04:06:59.740Z,-3.17
2022-12-12T04:09:47.414Z,-3.15
2022-12-12T04:12:42.631Z,-3.13
2022-12-12T04:15:36.923Z,-3.13
2022-12-12T04:18:31.289Z,-3.14
2022-12-12T04:21:34.296Z,-3.11
2022-12-12T04:24:14.390Z,-3.12
2022-12-12T04:27:01.273Z,-3.13
2022-12-12T04:30:04.287Z,-3.13
2022-12-12T04:32:49.543Z,-3.12
2022-12-12T04:35:27.668Z,-3.10
2022-12-12T04:37:58.667Z,-3.10
2022-12-12T04:40:32.478Z,-3.09
2022-12-12T04:43:12.369Z,-3.07
2022-12-12T04:45:44.436Z,-3.03
2022-12-12T04:48:17.956Z,-3.04
2022-12-12T04:50:49.962Z,-3.05
2022-12-12T04:53:26.741Z,-3.05
2022-12-12T04:56:01.532Z,-3.06
2022-12-12T04:58:29.939Z,-3.08
2022-12-12T05:01:18.915Z,-3.08
2022-12-12T05:03:58.543Z,-3.07
2022-12-12T05:06:42.061Z,-3.06
2022-12-12T05:09:11.939Z,-3.07
2022-12-12T05:11:41.649Z,-3.05
2022-12-12T05:14:10.663Z,-3.04
2022-12-12T05:16:44.867Z,-3.04
2022-12-12T05:19:13.278Z,-3.01
2022-12-12T05:21:41.606Z,-2.99
2022-12-12T05:24:10.095Z,-3.00
2022-12-12T05:26:38.480Z,-3.01
2022-12-12T05:29:07.679Z,-3.01
2022-12-12T05:31:36.248Z,-3.03
2022-12-12T05:34:04.917Z,-3.03
2022-12-12T05:36:33.064Z,-3.05
2022-12-12T05:39:01.195Z,-3.06
2022-12-12T05:41:29.371Z,-3.06
2022-12-12T05:43:57.650Z,-3.03
2022-12-12T05:46:25.854Z,-2.99
2022-12-12T05:48:54.023Z,-2.97
2022-12-12T05:51:22.261Z,-2.96
2022-12-12T05:53:50.724Z,-2.96
2022-12-12T05:56:19.834Z,-2.96
2022-12-12T05:58:48.034Z,-2.98
2022-12-12T06:01:16.232Z,-2.99
2022-12-12T06:03:44.541Z,-3.00
2022-12-12T06:06:12.934Z,-2.99
2022-12-12T06:08:41.156Z,-2.97
2022-12-12T06:11:09.384Z,-2.97
2022-12-12T06:13:38.389Z,-2.97
2022-12-12T06:16:13.072Z,-2.96
2022-12-12T06:18:41.860Z,-2.94
2022-12-12T06:21:12.322Z,-2.92
2022-12-12T06:23:41.555Z,-2.91
2022-12-12T06:26:12.086Z,-2.90
2022-12-12T06:28:40.848Z,-2.91
2022-12-12T06:31:12.065Z,-2.94
2022-12-12T06:33:42.473Z,-2.95
2022-12-12T06:36:14.750Z,-2.96
2022-12-12T06:38:43.157Z,-2.95
2022-12-12T06:41:14.209Z,-2.92
2022-12-12T06:43:42.847Z,-2.91
2022-12-12T06:46:15.643Z,-2.90
2022-12-12T06:48:44.498Z,-2.88
2022-12-12T06:51:18.451Z,-2.85
2022-12-12T06:53:47.488Z,-2.84
2022-12-12T06:56:18.461Z,-2.82
2022-12-12T06:58:47.365Z,-2.81
2022-12-12T07:01:19.511Z,-2.82
2022-12-12T07:03:52.055Z,-2.82
2022-12-12T07:06:23.544Z,-2.83
2022-12-12T07:08:52.672Z,-2.82
2022-12-12T07:11:25.359Z,-2.77
2022-12-12T07:13:55.780Z,-2.74
2022-12-12T07:16:24.613Z,-2.70
2022-12-12T07:18:52.884Z,-2.64
2022-12-12T07:21:21.404Z,-2.60
2022-12-12T07:23:49.533Z,-2.56
2022-12-12T07:26:20.956Z,-2.54
2022-12-12T07:28:49.806Z,-2.52
2022-12-12T07:31:21.197Z,-2.51
2022-12-12T07:33:49.451Z,-2.50
2022-12-12T07:36:18.104Z,-2.46
2022-12-12T07:38:46.250Z,-2.46
2022-12-12T07:41:17.042Z,-2.43
2022-12-12T07:43:49.727Z,-2.37
2022-12-12T07:46:22.253Z,-2.35
2022-12-12T07:48:55.861Z,-2.32
2022-12-12T07:51:24.585Z,-2.27
2022-12-12T07:53:53.057Z,-2.21
2022-12-12T07:56:21.471Z,-2.17
2022-12-12T07:58:51.424Z,-2.12
2022-12-12T08:01:24.202Z,-2.06
2022-12-12T08:03:53.578Z,-2.05
2022-12-12T08:06:23.432Z,-2.07
2022-12-12T08:08:52.938Z,-2.05
2022-12-12T08:11:24.107Z,-2.01
2022-12-12T08:13:53.653Z,-2.00
2022-12-12T08:16:27.993Z,-1.97
2022-12-12T08:18:57.658Z,-1.90
2022-12-12T08:21:27.186Z,-1.86
2022-12-12T08:23:59.924Z,-1.85
2022-12-12T08:26:30.072Z,-1.81
2022-12-12T08:28:58.925Z,-1.76
2022-12-12T08:31:27.733Z,-1.74
2022-12-12T08:33:56.550Z,-1.71
2022-12-12T08:36:32.802Z,-1.70
2022-12-12T08:39:13.118Z,-1.69
2022-12-12T08:41:43.347Z,-1.65
2022-12-12T08:44:12.961Z,-1.63
2022-12-12T08:46:42.126Z,-1.59
2022-12-12T08:49:11.640Z,-1.56
2022-12-12T08:51:41.363Z,-1.50
2022-12-12T08:54:12.548Z,-1.41
2022-12-12T08:56:41.082Z,-1.40
2022-12-12T08:59:09.616Z,-1.37
2022-12-12T09:01:38.352Z,-1.34
2022-12-12T09:04:06.606Z,-1.33
2022-12-12T09:06:35.487Z,-1.28
2022-12-12T09:09:03.741Z,-1.24
2022-12-12T09:11:31.979Z,-1.22
2022-12-12T09:14:00.268Z,-1.18
2022-12-12T09:16:30.238Z,-1.15
2022-12-12T09:18:58.506Z,-1.09
2022-12-12T09:21:26.811Z,-1.03
2022-12-12T09:23:55.394Z,-0.97
2022-12-12T09:26:23.591Z,-0.97
2022-12-12T09:28:51.782Z,-0.94
2022-12-12T09:31:20.515Z,-0.87
2022-12-12T09:33:50.659Z,-0.85
2022-12-12T09:36:19.089Z,-0.84
2022-12-12T09:38:47.389Z,-0.78
2022-12-12T09:41:27.167Z,-0.72
2022-12-12T09:44:12.577Z,-0.69
2022-12-12T09:46:44.298Z,-0.65
2022-12-12T09:49:16.036Z,-0.62
2022-12-12T09:51:48.604Z,-0.57
2022-12-12T09:54:22.986Z,-0.48
2022-12-12T09:56:53.770Z,-0.44
2022-12-12T09:59:38.996Z,-0.43
2022-12-12T10:02:16.102Z,-0.40
2022-12-12T10:05:04.916Z,-0.31
2022-12-12T10:07:46.512Z,-0.19
2022-12-12T10:10:17.461Z,-0.13
2022-12-12T10:12:47.577Z,-0.10
2022-12-12T10:15:31.289Z,-0.17
2022-12-12T10:18:02.928Z,-0.20
2022-12-12T10:20:36.875Z,-0.21
2022-12-12T10:23:21.944Z,-0.21
2022-12-12T10:26:05.304Z,-0.21
2022-12-12T10:28:35.026Z,-0.25
2022-12-12T10:31:18.983Z,-0.31
2022-12-12T10:34:05.642Z,-0.37
2022-12-12T10:37:00.647Z,-0.44
2022-12-12T10:39:34.741Z,-0.49
2022-12-12T10:42:23.624Z,-0.49
2022-12-12T10:45:03.241Z,-0.47
2022-12-12T10:47:32.365Z,-0.48
2022-12-12T10:50:20.425Z,-0.53
2022-12-12T10:52:49.118Z,-0.55
2022-12-12T10:55:23.244Z,-0.56
2022-12-12T10:58:03.901Z,-0.56
2022-12-12T11:00:34.921Z,-0.61
2022-12-12T11:03:28.223Z,-0.63
2022-12-12T11:05:57.575Z,-0.61
2022-12-12T11:08:30.499Z,-0.57
2022-12-12T11:11:19.634Z,-0.53
2022-12-12T11:14:03.292Z,-0.49
2022-12-12T11:16:43.988Z,-0.47
2022-12-12T11:19:21.996Z,-0.51
2022-12-12T11:21:50.692Z,-0.54
2022-12-12T11:24:31.465Z,-0.56
2022-12-12T11:27:02.863Z,-0.50
2022-12-12T11:29:41.352Z,-0.47
2022-12-12T11:32:19.576Z,-0.44
2022-12-12T11:34:53.416Z,-0.39
2022-12-12T11:37:37.137Z,-0.39
2022-12-12T11:40:07.585Z,-0.39
2022-12-12T11:42:35.790Z,-0.39
2022-12-12T11:45:21.357Z,-0.40
2022-12-12T11:47:49.719Z,-0.42
2022-12-12T11:50:26.220Z,-0.44
2022-12-12T11:53:03.829Z,-0.47
2022-12-12T11:55:44.648Z,-0.45
2022-12-12T11:58:15.768Z,-0.42
2022-12-12T12:00:59.244Z,-0.44
2022-12-12T12:03:40.322Z,-0.48
2022-12-12T12:06:17.772Z,-0.52
2022-12-12T12:09:07.878Z,-0.56
2022-12-12T12:11:38.945Z,-0.56
2022-12-12T12:14:10.732Z,-0.52
2022-12-12T12:17:02.337Z,-0.49
2022-12-12T12:19:42.684Z,-0.48
2022-12-12T12:22:19.767Z,-0.42
2022-12-12T12:24:47.944Z,-0.35
2022-12-12T12:27:39.447Z,-0.30
2022-12-12T12:30:21.464Z,-0.31
2022-12-12T12:33:01.858Z,-0.31
2022-12-12T12:35:43.855Z,-0.29
2022-12-12T12:38:25.547Z,-0.31
2022-12-12T12:41:22.433Z,-0.29
2022-12-12T12:44:11.823Z,-0.27
2022-12-12T12:46:49.381Z,-0.29
2022-12-12T12:49:33.082Z,-0.38
2022-12-12T12:52:09.826Z,-0.44
2022-12-12T12:54:40.620Z,-0.49
2022-12-12T12:57:14.569Z,-0.53
2022-12-12T12:59:51.679Z,-0.53
2022-12-12T13:02:33.543Z,-0.54
2022-12-12T13:05:07.826Z,-0.56
2022-12-12T13:07:55.062Z,-0.56
2022-12-12T13:10:27.477Z,-0.54
2022-12-12T13:13:01.757Z,-0.56
2022-12-12T13:15:47.825Z,-0.55
2022-12-12T13:18:18.082Z,-0.61
2022-12-12T13:20:55.918Z,-0.65
2022-12-12T13:23:55.713Z,-0.66
2022-12-12T13:26:39.237Z,-0.66
2022-12-12T13:29:46.464Z,-0.69
2022-12-12T13:32:36.556Z,-0.70
2022-12-12T13:35:10.719Z,-0.71
2022-12-12T13:37:53.881Z,-0.73
2022-12-12T13:40:30.529Z,-0.75
2022-12-12T13:43:07.451Z,-0.78
2022-12-12T13:45:43.342Z,-0.82
2022-12-12T13:48:29.487Z,-0.85
2022-12-12T13:51:34.714Z,-0.87
2022-12-12T13:54:14.174Z,-0.87
2022-12-12T13:56:53.525Z,-0.90
2022-12-12T13:59:27.663Z,-0.91
2022-12-12T14:02:01.171Z,-0.93
2022-12-12T14:04:32.329Z,-0.94
2022-12-12T14:07:03.255Z,-0.96
2022-12-12T14:09:47.831Z,-0.98
2022-12-12T14:12:29.148Z,-1.03
2022-12-12T14:15:05.419Z,-1.07
2022-12-12T14:17:42.074Z,-1.09
2022-12-12T14:20:30.628Z,-1.12
2022-12-12T14:23:07.410Z,-1.15
2022-12-12T14:25:38.757Z,-1.17
2022-12-12T14:28:18.235Z,-1.17
2022-12-12T14:30:48.705Z,-1.16
2022-12-12T14:33:16.931Z,-1.18
2022-12-12T14:35:45.022Z,-1.17
2022-12-12T14:38:28.411Z,-1.20
2022-12-12T14:41:03.076Z,-1.22
2022-12-12T14:43:37.202Z,-1.23
2022-12-12T14:46:05.899Z,-1.23
2022-12-12T14:48:35.949Z,-1.21
2022-12-12T14:51:04.174Z,-1.21
2022-12-12T14:53:54.049Z,-1.20
2022-12-12T14:56:30.535Z,-1.20
2022-12-12T14:59:05.296Z,-1.23
2022-12-12T15:01:49.698Z,-1.26
2022-12-12T15:04:28.095Z,-1.26
2022-12-12T15:06:58.639Z,-1.27
2022-12-12T15:09:34.199Z,-1.25
2022-12-12T15:12:14.057Z,-1.25
2022-12-12T15:14:48.499Z,-1.26
2022-12-12T15:17:35.991Z,-1.27
2022-12-12T15:20:09.912Z,-1.32
2022-12-12T15:22:48.572Z,-1.36
2022-12-12T15:25:19.594Z,-1.36
2022-12-12T15:27:55.628Z,-1.35
2022-12-12T15:30:37.215Z,-1.36
2022-12-12T15:33:14.871Z,-1.35
2022-12-12T15:35:55.066Z,-1.34
2022-12-12T15:38:26.428Z,-1.39
2022-12-12T15:40:58.167Z,-1.41
2022-12-12T15:43:28.950Z,-1.43
2022-12-12T15:46:00.263Z,-1.43
2022-12-12T15:48:28.460Z,-1.46
2022-12-12T15:51:01.686Z,-1.48
2022-12-12T15:53:35.762Z,-1.49
2022-12-12T15:56:09.413Z,-1.50
2022-12-12T15:58:43.728Z,-1.51
2022-12-12T16:01:20.281Z,-1.51
2022-12-12T16:03:54.915Z,-1.49
2022-12-12T16:06:32.457Z,-1.48
2022-12-12T16:09:15.770Z,-1.47
2022-12-12T16:11:46.354Z,-1.46
2022-12-12T16:14:23.878Z,-1.48
2022-12-12T16:17:10.883Z,-1.51
2022-12-12T16:20:07.649Z,-1.51
2022-12-12T16:22:50.314Z,-1.51
2022-12-12T16:25:23.252Z,-1.49
2022-12-12T16:28:10.048Z,-1.47
2022-12-12T16:30:42.073Z,-1.47
2022-12-12T16:33:51.990Z,-1.46
2022-12-12T16:36:20.062Z,-1.45
2022-12-12T16:38:48.290Z,-1.46
2022-12-12T16:41:18.451Z,-1.46
2022-12-12T16:43:46.856Z,-1.47
2022-12-12T16:46:21.404Z,-1.46
2022-12-12T16:48:50.738Z,-1.46
2022-12-12T16:51:26.486Z,-1.44
2022-12-12T16:53:55.603Z,-1.42
2022-12-12T16:56:24.843Z,-1.42
2022-12-12T16:58:53.478Z,-1.43
2022-12-12T17:01:22.353Z,-1.45
2022-12-12T17:03:50.623Z,-1.46
2022-12-12T17:06:18.954Z,-1.47
2022-12-12T17:08:47.138Z,-1.46
2022-12-12T17:11:15.494Z,-1.46
2022-12-12T17:13:48.674Z,-1.44
2022-12-12T17:16:19.378Z,-1.44
2022-12-12T17:18:51.008Z,-1.45
2022-12-12T17:21:19.458Z,-1.46
2022-12-12T17:23:47.524Z,-1.47
2022-12-12T17:26:15.991Z,-1.48
2022-12-12T17:28:45.049Z,-1.47
2022-12-12T17:31:13.333Z,-1.46
2022-12-12T17:33:50.047Z,-1.46
2022-12-12T17:36:19.910Z,-1.46
2022-12-12T17:38:48.745Z,-1.46
2022-12-12T17:41:17.138Z,-1.47
2022-12-12T17:43:49.335Z,-1.49
2022-12-12T17:46:20.454Z,-1.48
2022-12-12T17:48:49.091Z,-1.46
2022-12-12T17:51:20.980Z,-1.47
2022-12-12T17:53:51.262Z,-1.48
2022-12-12T17:56:22.719Z,-1.53
2022-12-12T17:58:51.266Z,-1.57
2022-12-12T18:01:29.274Z,-1.57
2022-12-12T18:03:59.462Z,-1.55
2022-12-12T18:06:31.943Z,-1.54
2022-12-12T18:09:01.029Z,-1.54
2022-12-12T18:11:31.672Z,-1.56
2022-12-12T18:14:02.258Z,-1.57
2022-12-12T18:16:32.366Z,-1.58
2022-12-12T18:19:01.920Z,-1.61
2022-12-12T18:24:23.336Z,-1.60
2022-12-12T18:26:53.732Z,-1.61
2022-12-12T18:29:22.867Z,-1.63
2022-12-12T18:31:51.280Z,-1.65
2022-12-12T18:34:19.970Z,-1.67
2022-12-12T18:36:49.368Z,-1.68
2022-12-12T18:39:17.939Z,-1.67
2022-12-12T18:41:46.288Z,-1.69
2022-12-12T18:44:15.470Z,-1.68
2022-12-12T18:46:44.101Z,-1.71
2022-12-12T18:49:15.696Z,-1.73
2022-12-12T18:51:47.744Z,-1.75
2022-12-12T18:54:16.753Z,-1.73
2022-12-12T18:56:46.738Z,-1.71
2022-12-12T18:59:15.973Z,-1.73
2022-12-12T19:01:44.305Z,-1.74
2022-12-12T19:04:19.307Z,-1.75
2022-12-12T19:06:49.480Z,-1.75
2022-12-12T19:09:20.112Z,-1.73
2022-12-12T19:11:48.748Z,-1.73
2022-12-12T19:14:17.666Z,-1.74
2022-12-12T19:16:46.055Z,-1.76
2022-12-12T19:19:14.975Z,-1.75
2022-12-12T19:21:43.543Z,-1.76
2022-12-12T19:24:14.851Z,-1.77
2022-12-12T19:26:45.775Z,-1.76
2022-12-12T19:29:17.583Z,-1.74
2022-12-12T19:31:46.040Z,-1.72
2022-12-12T19:34:16.450Z,-1.71
2022-12-12T19:36:44.911Z,-1.72
2022-12-12T19:39:13.395Z,-1.74
2022-12-12T19:41:42.112Z,-1.75
2022-12-12T19:44:13.109Z,-1.77
2022-12-12T19:46:45.664Z,-1.76
2022-12-12T19:49:18.307Z,-1.76
2022-12-12T19:51:47.397Z,-1.77
2022-12-12T19:54:18.976Z,-1.77
2022-12-12T19:56:47.757Z,-1.78
2022-12-12T19:59:18.441Z,-1.80
2022-12-12T20:01:47.518Z,-1.79
2022-12-12T20:04:18.961Z,-1.78
2022-12-12T20:06:49.321Z,-1.79
2022-12-12T20:09:23.558Z,-1.82
2022-12-12T20:11:52.427Z,-1.82
2022-12-12T20:14:32.548Z,-1.82
2022-12-12T20:17:03.054Z,-1.83
2022-12-12T20:19:32.031Z,-1.84
2022-12-12T20:22:01.861Z,-1.84
2022-12-12T20:24:33.361Z,-1.81
2022-12-12T20:27:03.695Z,-1.80
2022-12-12T20:29:32.319Z,-1.81
2022-12-12T20:32:01.726Z,-1.81
2022-12-12T20:34:30.216Z,-1.84
2022-12-12T20:36:58.899Z,-1.85
2022-12-12T20:39:27.542Z,-1.83
2022-12-12T20:41:57.109Z,-1.82
2022-12-12T20:44:25.875Z,-1.84
2022-12-12T20:46:54.240Z,-1.87
2022-12-12T20:49:24.134Z,-1.92
2022-12-12T20:51:55.772Z,-1.95
2022-12-12T20:54:26.538Z,-1.97
2022-12-12T20:56:54.867Z,-1.98
2022-12-12T20:59:24.213Z,-1.99
2022-12-12T21:01:53.285Z,-1.97
2022-12-12T21:04:22.150Z,-1.98
2022-12-12T21:06:51.998Z,-2.01
2022-12-12T21:09:25.766Z,-2.03
2022-12-12T21:11:56.872Z,-2.04
2022-12-12T21:14:26.405Z,-2.05
2022-12-12T21:16:54.720Z,-2.04
2022-12-12T21:19:23.992Z,-2.03
2022-12-12T21:21:52.666Z,-2.04
2022-12-12T21:24:21.257Z,-2.06
2022-12-12T21:26:49.547Z,-2.08
2022-12-12T21:29:18.147Z,-2.07
2022-12-12T21:31:51.391Z,-2.08
2022-12-12T21:34:22.658Z,-2.08
2022-12-12T21:36:52.947Z,-2.09
2022-12-12T21:39:23.498Z,-2.12
2022-12-12T21:41:51.786Z,-2.15
2022-12-12T21:44:21.027Z,-2.17
2022-12-12T21:46:49.863Z,-2.18
2022-12-12T21:49:26.658Z,-2.19
2022-12-12T21:52:03.915Z,-2.18
2022-12-12T21:54:32.494Z,-2.17
2022-12-12T21:57:01.600Z,-2.19
2022-12-12T21:59:30.522Z,-2.21
2022-12-12T22:02:00.305Z,-2.24
2022-12-12T22:04:29.198Z,-2.25
2022-12-12T22:06:58.319Z,-2.29
2022-12-12T22:09:26.650Z,-2.31
2022-12-12T22:12:04.044Z,-2.31
2022-12-12T22:14:34.369Z,-2.31
2022-12-12T22:17:04.469Z,-2.32
2022-12-12T22:19:32.833Z,-2.33
2022-12-12T22:22:01.103Z,-2.36
2022-12-12T22:24:29.559Z,-2.38
2022-12-12T22:26:57.666Z,-2.36
2022-12-12T22:29:26.032Z,-2.36
2022-12-12T22:31:54.374Z,-2.37
2022-12-12T22:34:24.486Z,-2.36
2022-12-12T22:36:54.065Z,-2.36
2022-12-12T22:39:25.180Z,-2.37
2022-12-12T22:41:56.174Z,-2.39
2022-12-12T22:44:25.590Z,-2.41
2022-12-12T22:46:55.149Z,-2.41
2022-12-12T22:49:26.115Z,-2.43
2022-12-12T22:51:57.194Z,-2.46
2022-12-12T22:54:27.047Z,-2.44
2022-12-12T22:56:55.646Z,-2.44
2022-12-12T22:59:25.511Z,-2.42
2022-12-12T23:01:53.904Z,-2.41
2022-12-12T23:04:22.156Z,-2.44
2022-12-12T23:06:50.494Z,-2.46
2022-12-12T23:09:22.163Z,-2.49
2022-12-12T23:11:50.647Z,-2.49
2022-12-12T23:14:21.797Z,-2.49
2022-12-12T23:16:51.014Z,-2.49
2022-12-12T23:19:23.455Z,-2.48
2022-12-12T23:21:52.117Z,-2.50
2022-12-12T23:24:20.466Z,-2.52
2022-12-12T23:26:50.599Z,-2.55
2022-12-12T23:29:21.163Z,-2.59
2022-12-12T23:31:50.091Z,-2.62
2022-12-12T23:34:24.997Z,-2.61
2022-12-12T23:36:54.265Z,-2.60
2022-12-12T23:39:23.386Z,-2.59
2022-12-12T23:41:51.912Z,-2.59
2022-12-12T23:44:22.168Z,-2.60
2022-12-12T23:46:51.354Z,-2.62
2022-12-12T23:49:25.592Z,-2.64
2022-12-12T23:51:55.951Z,-2.65
2022-12-12T23:54:32.233Z,-2.64
2022-12-12T23:57:01.664Z,-2.64
2022-12-12T23:59:30.146Z,-2.63
